createdAt,value
2019-02-28T00:00:03.247Z,1022.7
2019-02-28T00:01:03.154Z,1022.6
2019-02-28T00:02:03.452Z,1022.6
2019-02-28T00:03:03.216Z,1022.6
2019-02-28T00:04:02.906Z,1022.5
2019-02-28T00:05:07.146Z,1022.6
2019-02-28T00:06:03.779Z,1022.4
2019-02-28T00:07:03.714Z,1022.5
2019-02-28T00:08:03.507Z,1022.5
2019-02-28T00:09:03.301Z,1022.4
2019-02-28T00:10:03.519Z,1022.4
2019-02-28T00:11:06.393Z,1022.3
2019-02-28T00:12:03.758Z,1022.5
2019-02-28T00:13:03.653Z,1022.5
2019-02-28T00:14:03.655Z,1022.5
2019-02-28T00:15:03.619Z,1022.5
2019-02-28T00:16:04.335Z,1022.5
2019-02-28T00:17:10.220Z,1022.4
2019-02-28T00:18:04.128Z,1022.5
2019-02-28T00:19:03.613Z,1022.5
2019-02-28T00:20:03.527Z,1022.4
2019-02-28T00:21:07.429Z,1022.4
2019-02-28T00:22:03.243Z,1022.3
2019-02-28T00:23:03.214Z,1022.2
2019-02-28T00:24:03.371Z,1022.4
2019-02-28T00:25:05.381Z,1022.4
2019-02-28T00:26:03.298Z,1022.2
2019-02-28T00:27:03.042Z,1022.2
2019-02-28T00:28:03.473Z,1022.2
2019-02-28T00:29:03.323Z,1022.2
2019-02-28T00:30:07.314Z,1022.2
2019-02-28T00:31:03.128Z,1022.2
2019-02-28T00:32:03.354Z,1022
2019-02-28T00:33:03.836Z,1022.1
2019-02-28T00:34:05.905Z,1022.1
2019-02-28T00:35:03.419Z,1022.1
2019-02-28T00:36:03.591Z,1022.1
2019-02-28T00:37:03.342Z,1022.1
2019-02-28T00:38:03.174Z,1022.1
2019-02-28T00:39:04.492Z,1022.1
2019-02-28T00:40:03.143Z,1022
2019-02-28T00:41:03.517Z,1022.1
2019-02-28T00:42:03.184Z,1021.9
2019-02-28T00:43:03.314Z,1022
2019-02-28T00:44:04.833Z,1022.1
2019-02-28T00:45:04.114Z,1022
2019-02-28T00:46:03.305Z,1021.9
2019-02-28T00:47:03.108Z,1021.9
2019-02-28T00:48:03.313Z,1021.8
2019-02-28T00:49:03.152Z,1021.8
2019-02-28T00:50:03.300Z,1021.8
2019-02-28T00:51:03.937Z,1021.8
2019-02-28T00:52:03.237Z,1021.9
2019-02-28T00:53:03.078Z,1021.9
2019-02-28T00:54:03.163Z,1021.8
2019-02-28T00:55:03.221Z,1021.7
2019-02-28T00:56:03.938Z,1021.8
2019-02-28T00:57:03.039Z,1021.7
2019-02-28T00:58:03.960Z,1021.6
2019-02-28T00:59:03.981Z,1021.7
2019-02-28T01:00:06.735Z,1021.6
2019-02-28T01:01:03.905Z,1021.6
2019-02-28T01:02:03.956Z,1021.5
2019-02-28T01:03:03.622Z,1021.5
2019-02-28T01:04:03.711Z,1021.6
2019-02-28T01:05:06.390Z,1021.6
2019-02-28T01:06:03.818Z,1021.6
2019-02-28T01:07:03.757Z,1021.5
2019-02-28T01:08:03.747Z,1021.4
2019-02-28T01:09:03.684Z,1021.4
2019-02-28T01:10:05.534Z,1021.4
2019-02-28T01:11:02.172Z,1021.4
2019-02-28T01:12:03.988Z,1021.4
2019-02-28T01:13:04.018Z,1021.4
2019-02-28T01:14:03.381Z,1021.4
2019-02-28T01:15:03.313Z,1021.4
2019-02-28T01:16:03.944Z,1021.4
2019-02-28T01:17:03.634Z,1021.4
2019-02-28T01:18:03.719Z,1021.3
2019-02-28T01:19:03.205Z,1021.4
2019-02-28T01:20:03.399Z,1021.4
2019-02-28T01:21:03.363Z,1021.4
2019-02-28T01:22:03.411Z,1021.2
2019-02-28T01:23:03.311Z,1021.4
2019-02-28T01:24:03.433Z,1021.4
2019-02-28T01:25:07.373Z,1021.2
2019-02-28T01:26:03.558Z,1021.3
2019-02-28T01:27:03.450Z,1021.3
2019-02-28T01:28:03.299Z,1021.3
2019-02-28T01:29:03.439Z,1021.3
2019-02-28T01:30:07.694Z,1021.3
2019-02-28T01:31:03.480Z,1021.3
2019-02-28T01:32:03.070Z,1021.2
2019-02-28T01:33:03.326Z,1021.3
2019-02-28T01:34:03.365Z,1021.2
2019-02-28T01:35:07.262Z,1021.2
2019-02-28T01:36:03.113Z,1021.1
2019-02-28T01:37:03.064Z,1021.1
2019-02-28T01:38:02.793Z,1021.1
2019-02-28T01:39:03.974Z,1021.1
2019-02-28T01:40:05.656Z,1021.1
2019-02-28T01:41:04.092Z,1021.1
2019-02-28T01:42:03.984Z,1021.1
2019-02-28T01:43:04.041Z,1021.1
2019-02-28T01:44:03.726Z,1021
2019-02-28T01:45:03.469Z,1021.2
2019-02-28T01:46:03.789Z,1021
2019-02-28T01:47:02.984Z,1021
2019-02-28T01:48:03.882Z,1021.1
2019-02-28T01:49:03.760Z,1021
2019-02-28T01:50:03.604Z,1021
2019-02-28T01:51:04.056Z,1021
2019-02-28T01:52:03.911Z,1021
2019-02-28T01:53:03.816Z,1021
2019-02-28T01:54:03.815Z,1021
2019-02-28T01:55:03.849Z,1020.9
2019-02-28T01:56:03.597Z,1020.9
2019-02-28T01:57:03.647Z,1020.8
2019-02-28T01:58:04.387Z,1020.8
2019-02-28T01:59:03.538Z,1020.9
2019-02-28T02:00:03.710Z,1020.9
2019-02-28T02:01:03.050Z,1020.8
2019-02-28T02:02:07.342Z,1020.7
2019-02-28T02:03:03.901Z,1020.7
2019-02-28T02:04:03.943Z,1020.7
2019-02-28T02:05:03.041Z,1020.6
2019-02-28T02:06:02.819Z,1020.7
2019-02-28T02:07:03.807Z,1020.7
2019-02-28T02:08:07.742Z,1020.6
2019-02-28T02:09:03.049Z,1020.6
2019-02-28T02:10:04.033Z,1020.5
2019-02-28T02:11:04.038Z,1020.6
2019-02-28T02:12:03.898Z,1020.6
2019-02-28T02:13:04.647Z,1020.5
2019-02-28T02:14:03.802Z,1020.5
2019-02-28T02:15:03.641Z,1020.5
2019-02-28T02:16:03.863Z,1020.5
2019-02-28T02:17:03.535Z,1020.4
2019-02-28T02:18:10.335Z,1020.3
2019-02-28T02:19:03.654Z,1020.4
2019-02-28T02:20:03.682Z,1020.2
2019-02-28T02:21:03.616Z,1020.4
2019-02-28T02:22:10.455Z,1020.4
2019-02-28T02:23:03.591Z,1020.2
2019-02-28T02:24:03.527Z,1020.3
2019-02-28T02:25:04.557Z,1020.2
2019-02-28T02:26:03.603Z,1020.3
2019-02-28T02:27:03.376Z,1020.3
2019-02-28T02:28:03.464Z,1020.3
2019-02-28T02:29:03.447Z,1020.3
2019-02-28T02:30:03.197Z,1020.3
2019-02-28T02:31:03.213Z,1020.2
2019-02-28T02:32:03.117Z,1020.3
2019-02-28T02:33:03.336Z,1020.2
2019-02-28T02:34:03.381Z,1020.3
2019-02-28T02:35:08.878Z,1020.3
2019-02-28T02:36:03.371Z,1020.3
2019-02-28T02:37:03.219Z,1020.3
2019-02-28T02:38:05.309Z,1020.3
2019-02-28T02:39:03.950Z,1020.3
2019-02-28T02:40:03.900Z,1020.3
2019-02-28T02:41:05.306Z,1020.2
2019-02-28T02:42:12.140Z,1020.1
2019-02-28T02:43:03.267Z,1020.2
2019-02-28T02:44:03.380Z,1020.2
2019-02-28T02:45:07.067Z,1020.2
2019-02-28T02:46:03.922Z,1020.3
2019-02-28T02:47:03.632Z,1020.3
2019-02-28T02:48:07.277Z,1020.2
2019-02-28T02:49:03.335Z,1020.2
2019-02-28T02:50:03.726Z,1020.2
2019-02-28T02:51:12.854Z,1020.2
2019-02-28T02:52:03.650Z,1020.2
2019-02-28T02:53:07.059Z,1020.1
2019-02-28T02:54:03.568Z,1020.1
2019-02-28T02:55:03.351Z,1020.1
2019-02-28T02:56:05.368Z,1020
2019-02-28T02:57:03.491Z,1020
2019-02-28T02:58:03.409Z,1020
2019-02-28T02:59:03.729Z,1020.1
2019-02-28T03:00:03.596Z,1020
2019-02-28T03:01:03.253Z,1020.1
2019-02-28T03:02:03.051Z,1020
2019-02-28T03:03:08.169Z,1020.2
2019-02-28T03:04:03.631Z,1020.1
2019-02-28T03:05:03.833Z,1020.1
2019-02-28T03:06:03.602Z,1020.1
2019-02-28T03:07:03.236Z,1020
2019-02-28T03:08:03.344Z,1020
2019-02-28T03:09:03.299Z,1020
2019-02-28T03:10:03.429Z,1019.9
2019-02-28T03:11:03.502Z,1019.9
2019-02-28T03:12:03.133Z,1019.9
2019-02-28T03:13:06.929Z,1019.9
2019-02-28T03:14:03.092Z,1019.8
2019-02-28T03:15:03.975Z,1019.8
2019-02-28T03:16:03.417Z,1019.8
2019-02-28T03:17:12.475Z,1019.8
2019-02-28T03:18:03.392Z,1019.7
2019-02-28T03:19:03.225Z,1019.6
2019-02-28T03:20:09.223Z,1019.8
2019-02-28T03:21:03.337Z,1019.7
2019-02-28T03:22:03.151Z,1019.8
2019-02-28T03:23:03.814Z,1019.8
2019-02-28T03:24:02.997Z,1019.8
2019-02-28T03:25:03.387Z,1019.7
2019-02-28T03:26:07.602Z,1019.8
2019-02-28T03:27:03.426Z,1019.8
2019-02-28T03:28:03.227Z,1019.8
2019-02-28T03:29:09.334Z,1019.8
2019-02-28T03:30:04.274Z,1019.7
2019-02-28T03:31:16.599Z,1019.8
2019-02-28T03:32:03.931Z,1019.8
2019-02-28T03:33:03.911Z,1019.8
2019-02-28T03:34:14.723Z,1019.8
2019-02-28T03:35:03.334Z,1019.8
2019-02-28T03:36:03.245Z,1019.8
2019-02-28T03:37:03.408Z,1019.7
2019-02-28T03:38:13.067Z,1019.7
2019-02-28T03:39:03.354Z,1019.7
2019-02-28T03:40:05.769Z,1019.7
2019-02-28T03:41:04.298Z,1019.7
2019-02-28T03:42:03.269Z,1019.8
2019-02-28T03:43:07.477Z,1019.7
2019-02-28T03:44:03.184Z,1019.6
2019-02-28T03:45:03.357Z,1019.6
2019-02-28T03:46:11.916Z,1019.7
2019-02-28T03:47:03.898Z,1019.7
2019-02-28T03:48:03.910Z,1019.7
2019-02-28T03:49:12.942Z,1019.7
2019-02-28T03:50:04.112Z,1019.7
2019-02-28T03:51:03.884Z,1019.7
2019-02-28T03:52:07.274Z,1019.7
2019-02-28T03:53:03.772Z,1019.7
2019-02-28T03:54:03.079Z,1019.7
2019-02-28T03:55:05.083Z,1019.6
2019-02-28T03:56:04.086Z,1019.7
2019-02-28T03:57:03.958Z,1019.6
2019-02-28T03:58:06.256Z,1019.7
2019-02-28T03:59:03.431Z,1019.7
2019-02-28T04:00:03.710Z,1019.7
2019-02-28T04:01:10.762Z,1019.7
2019-02-28T04:02:03.866Z,1019.7
2019-02-28T04:03:03.848Z,1019.6
2019-02-28T04:04:12.907Z,1019.7
2019-02-28T04:05:03.988Z,1019.6
2019-02-28T04:06:05.346Z,1019.7
2019-02-28T04:07:03.053Z,1019.7
2019-02-28T04:08:04.162Z,1019.7
2019-02-28T04:09:09.429Z,1019.6
2019-02-28T04:10:03.942Z,1019.7
2019-02-28T04:11:03.894Z,1019.6
2019-02-28T04:12:09.469Z,1019.6
2019-02-28T04:13:03.878Z,1019.6
2019-02-28T04:14:04.240Z,1019.7
2019-02-28T04:15:11.676Z,1019.7
2019-02-28T04:16:10.495Z,1019.6
2019-02-28T04:17:03.575Z,1019.8
2019-02-28T04:18:08.963Z,1019.5
2019-02-28T04:19:03.931Z,1019.5
2019-02-28T04:20:03.976Z,1019.5
2019-02-28T04:21:03.695Z,1019.5
2019-02-28T04:22:03.219Z,1019.5
2019-02-28T04:23:03.727Z,1019.5
2019-02-28T04:24:03.880Z,1019.5
2019-02-28T04:25:04.014Z,1019.5
2019-02-28T04:26:03.478Z,1019.4
2019-02-28T04:27:08.278Z,1019.4
2019-02-28T04:28:03.559Z,1019.4
2019-02-28T04:29:03.832Z,1019.4
2019-02-28T04:30:08.958Z,1019.4
2019-02-28T04:31:03.488Z,1019.4
2019-02-28T04:32:03.387Z,1019.4
2019-02-28T04:33:03.685Z,1019.3
2019-02-28T04:34:03.623Z,1019.4
2019-02-28T04:35:03.931Z,1019.4
2019-02-28T04:36:03.591Z,1019.3
2019-02-28T04:37:03.651Z,1019.3
2019-02-28T04:38:03.532Z,1019.4
2019-02-28T04:39:03.571Z,1019.3
2019-02-28T04:40:03.515Z,1019.3
2019-02-28T04:41:03.354Z,1019.3
2019-02-28T04:42:06.382Z,1019.4
2019-02-28T04:43:03.475Z,1019.4
2019-02-28T04:44:03.700Z,1019.3
2019-02-28T04:45:03.523Z,1019.5
2019-02-28T04:46:03.773Z,1019.4
2019-02-28T04:47:08.007Z,1019.4
2019-02-28T04:48:03.356Z,1019.4
2019-02-28T04:49:03.473Z,1019.4
2019-02-28T04:50:03.488Z,1019.5
2019-02-28T04:51:07.005Z,1019.4
2019-02-28T04:52:03.546Z,1019.5
2019-02-28T04:53:03.284Z,1019.5
2019-02-28T04:54:03.150Z,1019.6
2019-02-28T04:55:04.277Z,1019.5
2019-02-28T04:56:03.436Z,1019.6
2019-02-28T04:57:03.579Z,1019.6
2019-02-28T04:58:02.747Z,1019.6
2019-02-28T04:59:03.051Z,1019.6
2019-02-28T05:00:07.002Z,1019.6
2019-02-28T05:01:03.303Z,1019.6
2019-02-28T05:02:03.102Z,1019.6
2019-02-28T05:03:03.080Z,1019.6
2019-02-28T05:04:03.436Z,1019.4
2019-02-28T05:05:03.247Z,1019.4
2019-02-28T05:06:02.975Z,1019.6
2019-02-28T05:07:03.045Z,1019.6
2019-02-28T05:08:06.269Z,1019.4
2019-02-28T05:09:03.018Z,1019.5
2019-02-28T05:10:03.216Z,1019.5
2019-02-28T05:11:02.925Z,1019.4
2019-02-28T05:12:06.340Z,1019.5
2019-02-28T05:13:03.275Z,1019.5
2019-02-28T05:14:03.246Z,1019.4
2019-02-28T05:15:03.149Z,1019.5
2019-02-28T05:16:03.230Z,1019.3
2019-02-28T05:17:03.141Z,1019.4
2019-02-28T05:18:03.587Z,1019.4
2019-02-28T05:19:03.882Z,1019.3
2019-02-28T05:20:03.935Z,1019.3
2019-02-28T05:21:03.239Z,1019.3
2019-02-28T05:22:02.659Z,1019.3
2019-02-28T05:23:04.138Z,1019.2
2019-02-28T05:24:04.092Z,1019.2
2019-02-28T05:25:04.024Z,1019.3
2019-02-28T05:26:03.449Z,1019.3
2019-02-28T05:27:03.152Z,1019.3
2019-02-28T05:28:07.849Z,1019.4
2019-02-28T05:29:03.219Z,1019.3
2019-02-28T05:30:03.053Z,1019.3
2019-02-28T05:31:03.112Z,1019.3
2019-02-28T05:32:03.098Z,1019.3
2019-02-28T05:33:03.069Z,1019.3
2019-02-28T05:34:03.321Z,1019.3
2019-02-28T05:35:02.927Z,1019.2
2019-02-28T05:36:04.747Z,1019.3
2019-02-28T05:37:03.888Z,1019.3
2019-02-28T05:38:03.892Z,1019.3
2019-02-28T05:39:03.988Z,1019.3
2019-02-28T05:40:07.278Z,1019.2
2019-02-28T05:41:03.853Z,1019.2
2019-02-28T05:42:03.193Z,1019.3
2019-02-28T05:43:03.156Z,1019.3
2019-02-28T05:44:07.661Z,1019.2
2019-02-28T05:45:03.301Z,1019.3
2019-02-28T05:46:03.841Z,1019.3
2019-02-28T05:47:03.750Z,1019.3
2019-02-28T05:48:04.972Z,1019.3
2019-02-28T05:49:04.031Z,1019.1
2019-02-28T05:50:03.953Z,1019.2
2019-02-28T05:51:03.062Z,1019.2
2019-02-28T05:52:03.173Z,1019.3
2019-02-28T05:53:10.350Z,1019.3
2019-02-28T05:54:02.885Z,1019.3
2019-02-28T05:55:03.676Z,1019.2
2019-02-28T05:56:03.523Z,1019.2
2019-02-28T05:57:09.318Z,1019.2
2019-02-28T05:58:03.087Z,1019.2
2019-02-28T05:59:02.873Z,1019.2
2019-02-28T06:00:03.430Z,1019.3
2019-02-28T06:01:03.230Z,1019.2
2019-02-28T06:02:03.060Z,1019.2
2019-02-28T06:03:03.529Z,1019.2
2019-02-28T06:04:04.358Z,1019.2
2019-02-28T06:05:03.586Z,1019.2
2019-02-28T06:06:03.225Z,1019.2
2019-02-28T06:07:03.357Z,1019.3
2019-02-28T06:08:04.563Z,1019.2
2019-02-28T06:09:03.313Z,1019.1
2019-02-28T06:10:04.020Z,1019.3
2019-02-28T06:11:03.091Z,1019.2
2019-02-28T06:12:03.082Z,1019.2
2019-02-28T06:13:03.204Z,1019.3
2019-02-28T06:14:02.873Z,1019.3
2019-02-28T06:15:04.079Z,1019.3
2019-02-28T06:16:03.101Z,1019.3
2019-02-28T06:17:03.330Z,1019.3
2019-02-28T06:18:04.073Z,1019.3
2019-02-28T06:19:09.419Z,1019.3
2019-02-28T06:20:04.085Z,1019.4
2019-02-28T06:21:03.927Z,1019.2
2019-02-28T06:22:03.018Z,1019.4
2019-02-28T06:23:03.288Z,1019.2
2019-02-28T06:24:03.184Z,1019.3
2019-02-28T06:25:03.519Z,1019.2
2019-02-28T06:26:03.346Z,1019.2
2019-02-28T06:27:07.923Z,1019.2
2019-02-28T06:28:03.097Z,1019.2
2019-02-28T06:29:06.210Z,1019.3
2019-02-28T06:30:02.926Z,1019.1
2019-02-28T06:31:03.983Z,1019.2
2019-02-28T06:32:03.910Z,1019.2
2019-02-28T06:33:03.891Z,1019.2
2019-02-28T06:34:09.597Z,1019.2
2019-02-28T06:35:03.030Z,1019.2
2019-02-28T06:36:04.957Z,1019.2
2019-02-28T06:37:04.835Z,1019.3
2019-02-28T06:38:03.334Z,1019.3
2019-02-28T06:39:03.897Z,1019.2
2019-02-28T06:40:03.789Z,1019.2
2019-02-28T06:41:08.972Z,1019.3
2019-02-28T06:42:03.816Z,1019.2
2019-02-28T06:43:03.207Z,1019.3
2019-02-28T06:44:03.511Z,1019.3
2019-02-28T06:45:04.130Z,1019.3
2019-02-28T06:46:04.096Z,1019.1
2019-02-28T06:47:04.019Z,1019.2
2019-02-28T06:48:03.988Z,1019.2
2019-02-28T06:49:07.520Z,1019.2
2019-02-28T06:50:04.044Z,1019.1
2019-02-28T06:51:03.906Z,1019.2
2019-02-28T06:52:03.070Z,1019.2
2019-02-28T06:53:03.378Z,1019.3
2019-02-28T06:54:09.043Z,1019.2
2019-02-28T06:55:03.145Z,1019.2
2019-02-28T06:56:03.198Z,1019.2
2019-02-28T06:57:02.778Z,1019.1
2019-02-28T06:58:03.252Z,1019.2
2019-02-28T06:59:06.018Z,1019.3
2019-02-28T07:00:03.150Z,1019.2
2019-02-28T07:01:03.632Z,1019.3
2019-02-28T07:02:04.008Z,1019.3
2019-02-28T07:03:04.825Z,1019
2019-02-28T07:04:03.004Z,1019.2
2019-02-28T07:05:03.514Z,1019.2
2019-02-28T07:06:03.234Z,1019.3
2019-02-28T07:07:03.322Z,1019.2
2019-02-28T07:08:02.979Z,1019.3
2019-02-28T07:09:03.444Z,1019.2
2019-02-28T07:10:02.982Z,1019.1
2019-02-28T07:11:02.901Z,1019.2
2019-02-28T07:12:03.978Z,1019.2
2019-02-28T07:13:05.927Z,1019
2019-02-28T07:14:03.017Z,1019
2019-02-28T07:15:03.309Z,1018.9
2019-02-28T07:16:04.725Z,1018.9
2019-02-28T07:17:03.264Z,1018.8
2019-02-28T07:18:04.013Z,1018.8
2019-02-28T07:19:03.140Z,1018.7
2019-02-28T07:20:03.858Z,1018.7
2019-02-28T07:21:03.747Z,1018.7
2019-02-28T07:22:03.735Z,1018.6
2019-02-28T07:23:02.698Z,1018.6
2019-02-28T07:24:04.175Z,1018.6
2019-02-28T07:25:03.769Z,1018.6
2019-02-28T07:26:03.796Z,1018.5
2019-02-28T07:27:04.606Z,1018.5
2019-02-28T07:28:03.834Z,1018.5
2019-02-28T07:29:03.838Z,1018.5
2019-02-28T07:30:03.816Z,1018.4
2019-02-28T07:31:03.222Z,1018.5
2019-02-28T07:32:03.664Z,1018.5
2019-02-28T07:33:11.003Z,1018.4
2019-02-28T07:34:03.562Z,1018.5
2019-02-28T07:35:03.796Z,1018.4
2019-02-28T07:36:10.944Z,1018.4
2019-02-28T07:37:03.587Z,1018.4
2019-02-28T07:38:03.448Z,1018.4
2019-02-28T07:39:05.558Z,1018.4
2019-02-28T07:40:03.345Z,1018.3
2019-02-28T07:41:03.703Z,1018.4
2019-02-28T07:42:03.412Z,1018.2
2019-02-28T07:43:03.589Z,1018.2
2019-02-28T07:44:03.431Z,1018.2
2019-02-28T07:45:03.530Z,1018.3
2019-02-28T07:46:09.167Z,1018.3
2019-02-28T07:47:03.721Z,1018.3
2019-02-28T07:48:03.667Z,1018.2
2019-02-28T07:49:03.532Z,1018.2
2019-02-28T07:50:03.418Z,1018.3
2019-02-28T07:51:03.228Z,1018.2
2019-02-28T07:52:03.515Z,1018.2
2019-02-28T07:53:10.087Z,1018.2
2019-02-28T07:54:03.371Z,1018.1
2019-02-28T07:55:03.240Z,1018.1
2019-02-28T07:56:08.143Z,1018
2019-02-28T07:57:03.257Z,1018
2019-02-28T07:58:03.405Z,1018
2019-02-28T07:59:06.688Z,1018
2019-02-28T08:00:03.743Z,1018.1
2019-02-28T08:01:03.534Z,1018.1
2019-02-28T08:02:04.334Z,1018
2019-02-28T08:03:03.318Z,1018
2019-02-28T08:04:02.809Z,1018
2019-02-28T08:05:03.648Z,1018
2019-02-28T08:06:06.148Z,1017.9
2019-02-28T08:07:03.662Z,1017.9
2019-02-28T08:08:03.305Z,1017.9
2019-02-28T08:09:05.803Z,1017.9
2019-02-28T08:10:03.783Z,1017.8
2019-02-28T08:11:03.749Z,1017.8
2019-02-28T08:12:03.701Z,1017.9
2019-02-28T08:13:04.448Z,1017.9
2019-02-28T08:14:03.921Z,1017.9
2019-02-28T08:15:03.683Z,1017.9
2019-02-28T08:16:03.847Z,1017.8
2019-02-28T08:17:10.235Z,1017.8
2019-02-28T08:18:06.212Z,1017.8
2019-02-28T08:19:03.516Z,1017.7
2019-02-28T08:20:03.296Z,1017.6
2019-02-28T08:21:09.701Z,1017.7
2019-02-28T08:22:03.784Z,1017.7
2019-02-28T08:23:03.879Z,1017.7
2019-02-28T08:24:06.661Z,1017.6
2019-02-28T08:25:04.040Z,1017.6
2019-02-28T08:26:02.934Z,1017.6
2019-02-28T08:27:03.023Z,1017.6
2019-02-28T08:28:03.228Z,1017.6
2019-02-28T08:29:03.036Z,1017.7
2019-02-28T08:30:03.391Z,1017.6
2019-02-28T08:31:03.488Z,1017.5
2019-02-28T08:32:08.512Z,1017.4
2019-02-28T08:33:03.524Z,1017.4
2019-02-28T08:34:03.378Z,1017.4
2019-02-28T08:35:03.410Z,1017.5
2019-02-28T08:36:12.846Z,1017.5
2019-02-28T08:37:03.147Z,1017.4
2019-02-28T08:38:03.518Z,1017.5
2019-02-28T08:39:11.984Z,1017.4
2019-02-28T08:40:03.529Z,1017.2
2019-02-28T08:41:06.568Z,1017.4
2019-02-28T08:42:05.348Z,1017.3
2019-02-28T08:43:03.750Z,1017.3
2019-02-28T08:44:03.641Z,1017.2
2019-02-28T08:45:04.000Z,1017.3
2019-02-28T08:46:14.153Z,1017.3
2019-02-28T08:47:03.759Z,1017.2
2019-02-28T08:48:03.556Z,1017.1
2019-02-28T08:49:07.697Z,1017.2
2019-02-28T08:50:03.844Z,1017.2
2019-02-28T08:51:02.986Z,1017.2
2019-02-28T08:52:07.105Z,1017
2019-02-28T08:53:02.962Z,1017.2
2019-02-28T08:54:03.068Z,1017.1
2019-02-28T08:55:09.554Z,1017
2019-02-28T08:56:03.062Z,1016.9
2019-02-28T08:57:03.129Z,1016.9
2019-02-28T08:58:07.106Z,1017
2019-02-28T08:59:23.110Z,1017.2
2019-02-28T09:00:03.513Z,1017
2019-02-28T09:01:06.946Z,1017
2019-02-28T09:02:03.201Z,1017
2019-02-28T09:03:03.743Z,1017
2019-02-28T09:04:06.158Z,1017
2019-02-28T09:05:03.661Z,1017
2019-02-28T09:06:07.831Z,1017
2019-02-28T09:07:04.001Z,1017.1
2019-02-28T09:08:03.901Z,1017
2019-02-28T09:09:03.910Z,1017
2019-02-28T09:10:12.869Z,1016.9
2019-02-28T09:11:03.930Z,1016.9
2019-02-28T09:12:03.824Z,1016.9
2019-02-28T09:13:09.205Z,1016.9
2019-02-28T09:14:03.765Z,1016.9
2019-02-28T09:15:03.263Z,1016.9
2019-02-28T09:16:05.894Z,1017
2019-02-28T09:17:02.829Z,1016.9
2019-02-28T09:18:03.876Z,1016.9
2019-02-28T09:19:03.979Z,1016.8
2019-02-28T09:20:03.799Z,1016.7
2019-02-28T09:21:02.959Z,1016.8
2019-02-28T09:22:03.920Z,1016.7
2019-02-28T09:23:03.598Z,1016.7
2019-02-28T09:24:03.142Z,1016.7
2019-02-28T09:25:03.339Z,1016.6
2019-02-28T09:26:03.865Z,1016.5
2019-02-28T09:27:05.253Z,1016.5
2019-02-28T09:28:03.263Z,1016.7
2019-02-28T09:29:03.658Z,1016.4
2019-02-28T09:30:03.623Z,1016.4
2019-02-28T09:31:06.371Z,1016.4
2019-02-28T09:32:03.275Z,1016.5
2019-02-28T09:33:03.369Z,1016.5
2019-02-28T09:34:03.643Z,1016.2
2019-02-28T09:35:14.813Z,1016.3
2019-02-28T09:36:03.799Z,1016.2
2019-02-28T09:37:03.976Z,1016.3
2019-02-28T09:38:14.083Z,1016.2
2019-02-28T09:39:03.791Z,1016.2
2019-02-28T09:40:03.989Z,1016.3
2019-02-28T09:41:05.757Z,1016.2
2019-02-28T09:42:03.699Z,1016.3
2019-02-28T09:43:03.805Z,1016.3
2019-02-28T09:44:03.745Z,1016.2
2019-02-28T09:45:08.115Z,1016.2
2019-02-28T09:46:03.583Z,1016.2
2019-02-28T09:47:03.632Z,1016.1
2019-02-28T09:48:03.104Z,1016.1
2019-02-28T09:49:13.221Z,1016.1
2019-02-28T09:50:03.098Z,1016.2
2019-02-28T09:51:03.357Z,1016.1
2019-02-28T09:52:07.614Z,1016.1
2019-02-28T09:53:02.667Z,1016
2019-02-28T09:54:03.746Z,1016
2019-02-28T09:55:03.572Z,1016
2019-02-28T09:56:04.388Z,1015.9
2019-02-28T09:57:03.419Z,1015.9
2019-02-28T09:58:03.597Z,1016
2019-02-28T09:59:04.257Z,1016
2019-02-28T10:00:03.428Z,1016.1
2019-02-28T10:01:03.604Z,1016
2019-02-28T10:02:09.897Z,1015.9
2019-02-28T10:03:03.913Z,1016
2019-02-28T10:04:04.034Z,1016
2019-02-28T10:05:07.879Z,1016
2019-02-28T10:06:03.738Z,1015.9
2019-02-28T10:07:03.370Z,1015.8
2019-02-28T10:08:03.882Z,1015.8
2019-02-28T10:09:03.645Z,1015.8
2019-02-28T10:10:03.595Z,1015.8
2019-02-28T10:11:03.731Z,1015.9
2019-02-28T10:12:11.281Z,1015.8
2019-02-28T10:13:03.710Z,1015.9
2019-02-28T10:14:03.406Z,1015.8
2019-02-28T10:15:07.817Z,1015.8
2019-02-28T10:16:03.819Z,1015.8
2019-02-28T10:17:03.700Z,1015.6
2019-02-28T10:18:06.041Z,1015.7
2019-02-28T10:19:05.601Z,1015.7
2019-02-28T10:20:03.525Z,1015.6
2019-02-28T10:21:03.705Z,1015.6
2019-02-28T10:22:03.684Z,1015.5
2019-02-28T10:23:03.756Z,1015.6
2019-02-28T10:24:03.538Z,1015.6
2019-02-28T10:25:07.452Z,1015.7
2019-02-28T10:26:03.611Z,1015.6
2019-02-28T10:27:03.917Z,1015.7
2019-02-28T10:28:03.880Z,1015.8
2019-02-28T10:29:08.396Z,1015.8
2019-02-28T10:30:03.816Z,1015.7
2019-02-28T10:31:03.936Z,1015.6
2019-02-28T10:32:09.987Z,1015.8
2019-02-28T10:33:03.433Z,1015.7
2019-02-28T10:34:04.203Z,1015.7
2019-02-28T10:35:03.792Z,1015.8
2019-02-28T10:36:03.803Z,1015.6
2019-02-28T10:37:04.690Z,1015.7
2019-02-28T10:38:03.979Z,1015.7
2019-02-28T10:39:09.987Z,1015.7
2019-02-28T10:40:05.470Z,1015.8
2019-02-28T10:41:03.922Z,1015.7
2019-02-28T10:42:06.446Z,1015.6
2019-02-28T10:43:03.853Z,1015.6
2019-02-28T10:44:03.921Z,1015.7
2019-02-28T10:45:07.424Z,1015.7
2019-02-28T10:46:04.095Z,1015.6
2019-02-28T10:47:02.890Z,1015.5
2019-02-28T10:48:04.415Z,1015.8
2019-02-28T10:49:03.197Z,1015.6
2019-02-28T10:50:03.206Z,1015.5
2019-02-28T10:51:14.580Z,1015.6
2019-02-28T10:52:03.101Z,1015.6
2019-02-28T10:53:06.566Z,1015.5
2019-02-28T10:54:03.336Z,1015.4
2019-02-28T10:55:03.584Z,1015.4
2019-02-28T10:56:03.110Z,1015.5
2019-02-28T10:57:07.337Z,1015.5
2019-02-28T10:58:03.114Z,1015.5
2019-02-28T10:59:03.012Z,1015.5
2019-02-28T11:00:02.995Z,1015.4
2019-02-28T11:01:09.265Z,1015.4
2019-02-28T11:02:03.019Z,1015.4
2019-02-28T11:03:04.142Z,1015.4
2019-02-28T11:04:08.457Z,1015.4
2019-02-28T11:05:03.070Z,1015.4
2019-02-28T11:06:03.455Z,1015.3
2019-02-28T11:07:03.508Z,1015.3
2019-02-28T11:08:03.245Z,1015.2
2019-02-28T11:09:03.324Z,1015.1
2019-02-28T11:10:03.360Z,1015.3
2019-02-28T11:11:03.430Z,1015.3
2019-02-28T11:12:03.277Z,1015.3
2019-02-28T11:13:03.180Z,1015.2
2019-02-28T11:14:05.292Z,1015.3
2019-02-28T11:15:03.704Z,1015
2019-02-28T11:16:03.259Z,1015
2019-02-28T11:17:03.097Z,1015
2019-02-28T11:18:10.331Z,1015.1
2019-02-28T11:19:03.454Z,1015
2019-02-28T11:20:03.566Z,1015.1
2019-02-28T11:21:03.276Z,1015.1
2019-02-28T11:22:06.345Z,1015.1
2019-02-28T11:23:03.443Z,1015
2019-02-28T11:24:03.322Z,1015.2
2019-02-28T11:25:03.447Z,1015.1
2019-02-28T11:26:03.198Z,1015.3
2019-02-28T11:27:02.965Z,1015.2
2019-02-28T11:28:03.043Z,1015.1
2019-02-28T11:29:04.177Z,1015.2
2019-02-28T11:30:03.514Z,1015
2019-02-28T11:31:03.277Z,1015.1
2019-02-28T11:32:03.767Z,1015
2019-02-28T11:33:05.096Z,1015.1
2019-02-28T11:34:04.152Z,1015
2019-02-28T11:35:04.027Z,1014.9
2019-02-28T11:36:03.601Z,1015
2019-02-28T11:37:10.183Z,1015
2019-02-28T11:38:05.416Z,1014.9
2019-02-28T11:39:03.934Z,1014.9
2019-02-28T11:40:09.482Z,1015
2019-02-28T11:41:03.666Z,1014.8
2019-02-28T11:42:03.600Z,1014.9
2019-02-28T11:43:04.533Z,1014.8
2019-02-28T11:44:03.733Z,1014.9
2019-02-28T11:45:03.375Z,1014.8
2019-02-28T11:46:03.449Z,1014.8
2019-02-28T11:47:03.475Z,1014.7
2019-02-28T11:48:03.496Z,1014.9
2019-02-28T11:49:03.467Z,1014.8
2019-02-28T11:50:08.104Z,1014.9
2019-02-28T11:51:03.885Z,1014.8
2019-02-28T11:52:03.127Z,1014.8
2019-02-28T11:53:06.370Z,1014.7
2019-02-28T11:54:03.783Z,1014.8
2019-02-28T11:55:03.553Z,1014.8
2019-02-28T11:56:03.238Z,1014.8
2019-02-28T11:57:07.202Z,1014.7
2019-02-28T11:58:03.807Z,1014.6
2019-02-28T11:59:02.275Z,1014.7
2019-02-28T12:00:03.596Z,1014.8
2019-02-28T12:01:03.645Z,1014.8
2019-02-28T12:02:03.911Z,1014.6
2019-02-28T12:03:06.426Z,1014.7
2019-02-28T12:04:03.249Z,1014.6
2019-02-28T12:05:03.513Z,1014.7
2019-02-28T12:06:03.351Z,1014.6
2019-02-28T12:07:03.348Z,1014.6
2019-02-28T12:08:10.274Z,1014.6
2019-02-28T12:09:03.316Z,1014.6
2019-02-28T12:10:03.671Z,1014.6
2019-02-28T12:11:03.279Z,1014.6
2019-02-28T12:12:03.257Z,1014.6
2019-02-28T12:13:03.129Z,1014.6
2019-02-28T12:14:03.290Z,1014.5
2019-02-28T12:15:07.058Z,1014.4
2019-02-28T12:16:04.073Z,1014.4
2019-02-28T12:17:03.246Z,1014.5
2019-02-28T12:18:05.266Z,1014.5
2019-02-28T12:19:03.254Z,1014.5
2019-02-28T12:20:04.286Z,1014.5
2019-02-28T12:21:05.343Z,1014.4
2019-02-28T12:22:03.247Z,1014.5
2019-02-28T12:23:03.103Z,1014.4
2019-02-28T12:24:02.968Z,1014.4
2019-02-28T12:25:08.728Z,1014.4
2019-02-28T12:26:03.036Z,1014.3
2019-02-28T12:27:04.482Z,1014.4
2019-02-28T12:28:07.106Z,1014.4
2019-02-28T12:29:03.098Z,1014.5
2019-02-28T12:30:03.381Z,1014.3
2019-02-28T12:31:03.148Z,1014.3
2019-02-28T12:32:03.037Z,1014.2